Time;durP1;ratioP1;P1;durP2;ratioP2;P2;SDS_P1;SDS_P2;PMS_P1;PMS_P2;Temp;Humidity;BMP_temperature;BMP_pressure;BME280_temperature;BME280_humidity;BME280_pressure;Samples;Min_cycle;Max_cycle;Signal;HPM_P1;HPM_P2
2024/03/18 00:00:01;;;;;;;17.90;17.30;;;;;;;;;;4965921;28;20467;-68
2024/03/18 00:02:29;;;;;;;17.30;16.70;;;;;;;;;;4960340;28;20947;-68
2024/03/18 00:04:57;;;;;;;16.53;16.03;;;;;;;;;;4967602;28;20460;-69
2024/03/18 00:07:24;;;;;;;18.00;17.40;;;;;;;;;;4960468;28;20477;-70
2024/03/18 00:09:53;;;;;;;17.90;17.30;;;;;;;;;;4969497;28;20519;-70
2024/03/18 00:12:21;;;;;;;17.90;17.30;;;;;;;;;;4969072;28;20498;-69
2024/03/18 00:14:49;;;;;;;17.00;16.50;;;;;;;;;;4967081;28;20464;-69
2024/03/18 00:17:16;;;;;;;16.90;16.40;;;;;;;;;;4957358;28;21264;-70
2024/03/18 00:19:44;;;;;;;17.33;16.77;;;;;;;;;;4960880;28;20472;-71
2024/03/18 00:22:11;;;;;;;17.10;16.60;;;;;;;;;;4956477;28;20498;-70
2024/03/18 00:24:38;;;;;;;16.87;16.37;;;;;;;;;;4968188;28;20464;-73
2024/03/18 00:27:07;;;;;;;17.63;17.03;;;;;;;;;;4968943;28;20464;-72
2024/03/18 00:29:34;;;;;;;18.00;17.40;;;;;;;;;;4966501;28;20487;-73
2024/03/18 00:32:01;;;;;;;16.83;16.33;;;;;;;;;;4967654;28;20470;-71
2024/03/18 00:34:28;;;;;;;17.90;17.30;;;;;;;;;;4958658;28;20496;-72
2024/03/18 00:36:55;;;;;;;17.63;17.03;;;;;;;;;;4960816;28;20463;-71
2024/03/18 00:39:22;;;;;;;17.73;17.13;;;;;;;;;;4966173;28;20483;-72
2024/03/18 00:41:49;;;;;;;18.00;17.40;;;;;;;;;;4968616;28;20468;-71
2024/03/18 00:44:19;;;;;;;18.67;18.07;;;;;;;;;;4973104;28;20555;-70
2024/03/18 00:46:47;;;;;;;19.00;18.40;;;;;;;;;;4962164;28;20476;-70
2024/03/18 00:49:15;;;;;;;18.27;17.67;;;;;;;;;;4967863;28;20464;-70
2024/03/18 00:51:43;;;;;;;19.50;18.90;;;;;;;;;;4968684;28;20464;-70
2024/03/18 00:54:10;;;;;;;18.73;18.13;;;;;;;;;;4958678;28;20503;-71
2024/03/18 00:56:37;;;;;;;18.30;17.70;;;;;;;;;;4961542;28;20452;-71
2024/03/18 00:59:05;;;;;;;19.30;18.60;;;;;;;;;;4966504;28;20512;-71
2024/03/18 01:01:34;;;;;;;19.03;18.40;;;;;;;;;;4964229;28;20519;-71
2024/03/18 01:04:02;;;;;;;18.80;18.20;;;;;;;;;;4961409;28;20481;-72
2024/03/18 01:06:30;;;;;;;19.17;18.53;;;;;;;;;;4958679;28;20475;-70
2024/03/18 01:08:57;;;;;;;20.10;19.40;;;;;;;;;;4959719;28;20978;-70
2024/03/18 01:11:24;;;;;;;20.50;19.80;;;;;;;;;;4969214;28;20464;-71
2024/03/18 01:13:52;;;;;;;20.47;19.77;;;;;;;;;;4970330;28;20496;-70
2024/03/18 01:16:20;;;;;;;19.70;19.00;;;;;;;;;;4968949;28;20479;-70
2024/03/18 01:18:49;;;;;;;20.00;19.30;;;;;;;;;;4968674;28;20480;-71
2024/03/18 01:21:17;;;;;;;19.90;19.20;;;;;;;;;;4968720;28;20471;-70
2024/03/18 01:23:45;;;;;;;19.83;19.13;;;;;;;;;;4963608;28;21061;-70
2024/03/18 01:26:13;;;;;;;19.50;18.83;;;;;;;;;;4970686;28;20505;-69
2024/03/18 01:28:40;;;;;;;20.40;19.70;;;;;;;;;;4961678;28;20464;-71
2024/03/18 01:31:08;;;;;;;18.23;17.63;;;;;;;;;;4957585;28;20964;-71
2024/03/18 01:33:35;;;;;;;18.90;18.30;;;;;;;;;;4961920;28;20584;-71
2024/03/18 01:36:04;;;;;;;19.57;18.97;;;;;;;;;;4959322;28;20481;-69
2024/03/18 01:38:31;;;;;;;19.57;18.97;;;;;;;;;;4954969;28;20470;-71
2024/03/18 01:40:58;;;;;;;19.13;18.53;;;;;;;;;;4968376;28;20524;-70
2024/03/18 01:43:25;;;;;;;18.83;18.23;;;;;;;;;;4966583;28;20990;-71
2024/03/18 01:45:52;;;;;;;18.60;18.00;;;;;;;;;;4965284;28;20465;-71
2024/03/18 01:48:19;;;;;;;19.00;18.40;;;;;;;;;;4967739;28;20482;-70
2024/03/18 01:50:47;;;;;;;19.57;18.97;;;;;;;;;;4972219;28;20476;-73
2024/03/18 01:53:17;;;;;;;19.63;19.03;;;;;;;;;;4969998;28;20500;-70
2024/03/18 01:55:44;;;;;;;18.33;17.73;;;;;;;;;;4972989;28;20467;-70
2024/03/18 01:58:11;;;;;;;18.90;18.30;;;;;;;;;;4961172;28;20752;-69
2024/03/18 02:00:41;;;;;;;18.77;18.17;;;;;;;;;;4974872;28;20469;-70
2024/03/18 02:03:08;;;;;;;19.70;19.10;;;;;;;;;;4972515;28;20550;-70
2024/03/18 02:05:36;;;;;;;19.43;18.83;;;;;;;;;;4967602;28;20487;-70
2024/03/18 02:08:04;;;;;;;18.70;18.10;;;;;;;;;;4956861;28;20473;-70
2024/03/18 02:10:33;;;;;;;19.40;18.80;;;;;;;;;;4961410;28;21024;-70
2024/03/18 02:13:00;;;;;;;18.83;18.23;;;;;;;;;;4968881;28;20526;-71
2024/03/18 02:15:27;;;;;;;19.77;19.17;;;;;;;;;;4963422;28;20478;-70
2024/03/18 02:17:54;;;;;;;18.53;17.93;;;;;;;;;;4961948;28;20478;-72
2024/03/18 02:20:22;;;;;;;18.90;18.30;;;;;;;;;;4971362;28;20483;-70
2024/03/18 02:22:51;;;;;;;19.77;19.17;;;;;;;;;;4969557;28;20476;-72
2024/03/18 02:25:19;;;;;;;19.73;19.13;;;;;;;;;;4971865;28;20457;-70
2024/03/18 02:27:47;;;;;;;19.57;18.97;;;;;;;;;;4969099;28;20605;-70
2024/03/18 02:30:14;;;;;;;20.53;19.83;;;;;;;;;;4966389;28;20465;-70
2024/03/18 02:32:42;;;;;;;18.87;18.27;;;;;;;;;;4961631;28;20476;-72
2024/03/18 02:35:11;;;;;;;20.00;19.30;;;;;;;;;;4965746;28;20570;-70
2024/03/18 02:37:38;;;;;;;19.80;19.13;;;;;;;;;;4971142;28;20504;-72
2024/03/18 02:40:08;;;;;;;18.97;18.37;;;;;;;;;;4965632;28;20475;-71
2024/03/18 02:42:36;;;;;;;19.30;18.70;;;;;;;;;;4958268;28;20480;-70
2024/03/18 02:45:05;;;;;;;19.03;18.43;;;;;;;;;;4966038;28;20528;-70
2024/03/18 02:47:32;;;;;;;20.10;19.40;;;;;;;;;;4970549;28;20481;-70
2024/03/18 02:49:59;;;;;;;19.70;19.10;;;;;;;;;;4970409;28;20479;-70
2024/03/18 02:52:26;;;;;;;20.33;19.63;;;;;;;;;;4970892;28;20464;-71
2024/03/18 02:54:54;;;;;;;19.87;19.27;;;;;;;;;;4980353;28;20493;-71
2024/03/18 02:57:23;;;;;;;20.43;19.73;;;;;;;;;;4962285;28;20755;-70
2024/03/18 02:59:50;;;;;;;20.30;19.60;;;;;;;;;;4964095;28;20471;-71
2024/03/18 03:02:17;;;;;;;20.43;19.73;;;;;;;;;;4966380;28;20888;-71
2024/03/18 03:04:45;;;;;;;20.50;19.80;;;;;;;;;;4962896;28;20471;-70
2024/03/18 03:07:13;;;;;;;20.53;19.83;;;;;;;;;;4962364;28;20519;-70
2024/03/18 03:09:40;;;;;;;19.00;18.40;;;;;;;;;;4968551;28;20479;-71
2024/03/18 03:12:08;;;;;;;19.10;18.50;;;;;;;;;;4959595;28;20846;-71
2024/03/18 03:14:37;;;;;;;18.17;17.57;;;;;;;;;;4963471;28;20995;-72
2024/03/18 03:17:04;;;;;;;17.87;17.37;;;;;;;;;;4959933;28;20462;-71
2024/03/18 03:19:32;;;;;;;20.60;19.90;;;;;;;;;;4968624;28;20555;-70
2024/03/18 03:21:59;;;;;;;18.50;17.90;;;;;;;;;;4970309;28;20465;-71
2024/03/18 03:24:26;;;;;;;18.13;17.53;;;;;;;;;;4973628;28;20466;-70
2024/03/18 03:26:52;;;;;;;19.37;18.77;;;;;;;;;;4967275;28;20461;-70
2024/03/18 03:29:19;;;;;;;17.77;17.27;;;;;;;;;;4959864;28;21079;-70
2024/03/18 03:31:48;;;;;;;17.77;17.27;;;;;;;;;;4974838;28;20468;-70
2024/03/18 03:34:15;;;;;;;18.07;17.47;;;;;;;;;;4975609;28;20502;-70
2024/03/18 03:36:44;;;;;;;19.17;18.57;;;;;;;;;;4967725;28;20467;-71
2024/03/18 03:39:11;;;;;;;19.60;19.00;;;;;;;;;;4964871;28;20466;-70
2024/03/18 03:41:38;;;;;;;20.00;19.40;;;;;;;;;;4963082;28;20465;-70
2024/03/18 03:44:05;;;;;;;19.13;18.53;;;;;;;;;;4967922;28;20464;-71
2024/03/18 03:46:33;;;;;;;19.47;18.87;;;;;;;;;;4968669;28;20461;-71
2024/03/18 03:49:03;;;;;;;20.73;20.03;;;;;;;;;;4970277;28;20772;-71
2024/03/18 03:51:30;;;;;;;20.40;19.70;;;;;;;;;;4957320;28;20519;-70
2024/03/18 03:53:58;;;;;;;19.57;18.97;;;;;;;;;;4965422;28;20497;-70
2024/03/18 03:56:25;;;;;;;19.03;18.43;;;;;;;;;;4964155;28;20480;-71
2024/03/18 03:58:54;;;;;;;20.47;19.77;;;;;;;;;;4965776;28;20464;-72
2024/03/18 04:01:21;;;;;;;21.33;20.63;;;;;;;;;;4963272;28;20483;-71
2024/03/18 04:03:49;;;;;;;20.37;19.67;;;;;;;;;;4969548;28;20488;-70
2024/03/18 04:06:18;;;;;;;21.00;20.30;;;;;;;;;;4963221;28;20495;-70
2024/03/18 04:08:46;;;;;;;20.63;19.93;;;;;;;;;;4965884;28;20469;-69
2024/03/18 04:11:13;;;;;;;19.40;18.80;;;;;;;;;;4969819;28;20465;-70
2024/03/18 04:13:41;;;;;;;20.33;19.63;;;;;;;;;;4963358;28;20495;-70
2024/03/18 04:16:09;;;;;;;19.90;19.20;;;;;;;;;;4974265;28;20490;-72
2024/03/18 04:18:36;;;;;;;21.53;20.83;;;;;;;;;;4969513;28;20472;-71
2024/03/18 04:21:04;;;;;;;21.57;20.87;;;;;;;;;;4960898;28;20473;-69
2024/03/18 04:23:33;;;;;;;21.10;20.40;;;;;;;;;;4966955;28;20526;-69
2024/03/18 04:26:05;;;;;;;20.47;19.77;;;;;;;;;;4959253;28;21047;-70
2024/03/18 04:28:33;;;;;;;21.30;20.60;;;;;;;;;;4966130;28;20909;-71
2024/03/18 04:31:04;;;;;;;22.07;21.27;;;;;;;;;;4960281;28;20694;-71
2024/03/18 04:33:32;;;;;;;20.87;20.17;;;;;;;;;;4952138;28;20558;-70
2024/03/18 04:35:59;;;;;;;22.00;21.20;;;;;;;;;;4960292;28;20959;-71
2024/03/18 04:38:26;;;;;;;21.63;20.93;;;;;;;;;;4969454;28;20877;-70
2024/03/18 04:40:55;;;;;;;21.90;21.10;;;;;;;;;;4956721;28;20876;-71
2024/03/18 04:43:23;;;;;;;20.17;19.47;;;;;;;;;;4957192;28;20477;-71
2024/03/18 04:45:50;;;;;;;21.13;20.43;;;;;;;;;;4973683;28;20468;-71
2024/03/18 04:48:17;;;;;;;20.67;19.97;;;;;;;;;;4965448;28;20555;-71
2024/03/18 04:50:44;;;;;;;21.60;20.90;;;;;;;;;;4965981;28;20473;-70
2024/03/18 04:53:11;;;;;;;21.17;20.47;;;;;;;;;;4961482;28;20470;-70
2024/03/18 04:55:38;;;;;;;21.30;20.50;;;;;;;;;;4960886;28;21033;-70
2024/03/18 04:58:08;;;;;;;22.07;21.27;;;;;;;;;;4957069;28;20468;-71
2024/03/18 05:00:35;;;;;;;22.63;21.83;;;;;;;;;;4963761;28;20501;-71
2024/03/18 05:03:02;;;;;;;22.10;21.30;;;;;;;;;;4958065;28;20460;-69
2024/03/18 05:05:31;;;;;;;22.73;21.93;;;;;;;;;;4967602;28;20452;-70
2024/03/18 05:07:58;;;;;;;22.20;21.40;;;;;;;;;;4965345;28;20679;-70
2024/03/18 05:10:26;;;;;;;23.77;22.87;;;;;;;;;;4964504;28;20845;-70
2024/03/18 05:12:59;;;;;;;22.83;22.00;;;;;;;;;;4971716;28;20446;-71
2024/03/18 05:15:27;;;;;;;24.00;23.10;;;;;;;;;;4964514;28;20502;-70
2024/03/18 05:17:54;;;;;;;22.43;21.63;;;;;;;;;;4963273;28;20475;-71
2024/03/18 05:20:21;;;;;;;24.10;23.20;;;;;;;;;;4971264;28;20464;-70
2024/03/18 05:22:49;;;;;;;23.20;22.40;;;;;;;;;;4965861;28;20465;-71
2024/03/18 05:25:16;;;;;;;23.03;22.23;;;;;;;;;;4964583;28;20961;-71
2024/03/18 05:27:43;;;;;;;24.40;23.50;;;;;;;;;;4966406;28;20953;-70
2024/03/18 05:30:11;;;;;;;24.37;23.47;;;;;;;;;;4965650;28;20480;-71
2024/03/18 05:32:42;;;;;;;24.10;23.20;;;;;;;;;;4962673;28;20462;-70
2024/03/18 05:35:09;;;;;;;23.70;22.80;;;;;;;;;;4970595;28;20480;-70
2024/03/18 05:37:38;;;;;;;22.67;21.87;;;;;;;;;;4958767;28;20482;-70
2024/03/18 05:40:06;;;;;;;21.63;20.93;;;;;;;;;;4964171;28;20540;-70
2024/03/18 05:42:35;;;;;;;23.07;22.27;;;;;;;;;;4964007;28;20462;-70
2024/03/18 05:45:02;;;;;;;21.90;21.10;;;;;;;;;;4968687;28;20467;-70
2024/03/18 05:47:29;;;;;;;22.03;21.23;;;;;;;;;;4970872;28;20459;-71
2024/03/18 05:49:58;;;;;;;23.70;22.90;;;;;;;;;;4970895;28;20475;-70
2024/03/18 05:52:25;;;;;;;23.60;22.80;;;;;;;;;;4967999;28;20456;-71
2024/03/18 05:54:52;;;;;;;22.90;22.10;;;;;;;;;;4960091;28;20511;-70
2024/03/18 05:57:19;;;;;;;23.77;22.87;;;;;;;;;;4964646;28;20472;-70
2024/03/18 05:59:47;;;;;;;24.50;23.60;;;;;;;;;;4966421;28;20464;-70
2024/03/18 06:02:15;;;;;;;22.97;22.17;;;;;;;;;;4977965;28;20483;-71
2024/03/18 06:04:42;;;;;;;23.90;23.00;;;;;;;;;;4965325;28;20474;-70
2024/03/18 06:07:11;;;;;;;23.30;22.40;;;;;;;;;;4964828;28;20471;-71
2024/03/18 06:09:38;;;;;;;23.10;22.23;;;;;;;;;;4970281;28;20479;-70
2024/03/18 06:12:05;;;;;;;22.63;21.83;;;;;;;;;;4965904;28;20465;-71
2024/03/18 06:14:32;;;;;;;20.97;20.27;;;;;;;;;;4966259;28;20594;-72
2024/03/18 06:17:00;;;;;;;21.30;20.50;;;;;;;;;;4964340;28;20472;-70
2024/03/18 06:19:33;;;;;;;22.60;21.80;;;;;;;;;;4960769;28;20983;-70
2024/03/18 06:22:02;;;;;;;22.17;21.37;;;;;;;;;;4960738;28;20672;-70
2024/03/18 06:25:54;;;;;;;21.23;20.43;;;;;;;;;;4960414;28;20834;-70
2024/03/18 06:27:17;;;;;;;21.57;20.80;;;;;;;;;;4958377;28;20461;-71
2024/03/18 06:29:44;;;;;;;22.20;21.40;;;;;;;;;;4959542;28;20879;-71
2024/03/18 06:32:11;;;;;;;22.07;21.27;;;;;;;;;;4970372;28;20905;-71
2024/03/18 06:34:39;;;;;;;20.93;20.20;;;;;;;;;;4959749;28;20595;-71
2024/03/18 06:37:06;;;;;;;22.73;21.93;;;;;;;;;;4952298;28;20469;-70
2024/03/18 06:39:34;;;;;;;21.77;20.97;;;;;;;;;;4958814;28;20502;-70
2024/03/18 06:42:02;;;;;;;20.97;20.17;;;;;;;;;;4968806;28;20468;-71
2024/03/18 06:44:30;;;;;;;21.33;20.53;;;;;;;;;;4972506;28;20460;-70
2024/03/18 06:46:57;;;;;;;21.43;20.63;;;;;;;;;;4963211;28;20479;-71
2024/03/18 06:49:25;;;;;;;21.80;21.00;;;;;;;;;;4958427;28;20463;-70
2024/03/18 06:51:52;;;;;;;21.87;21.07;;;;;;;;;;4961120;28;20482;-70
2024/03/18 06:54:19;;;;;;;21.93;21.13;;;;;;;;;;4968660;28;20514;-71
2024/03/18 06:56:48;;;;;;;20.60;19.80;;;;;;;;;;4968894;28;20505;-71
2024/03/18 06:59:16;;;;;;;22.67;21.77;;;;;;;;;;4966639;28;20510;-71
2024/03/18 07:01:43;;;;;;;21.93;21.07;;;;;;;;;;4967522;28;20863;-72
2024/03/18 07:04:10;;;;;;;22.07;21.27;;;;;;;;;;4955786;28;20572;-71
2024/03/18 07:06:38;;;;;;;23.07;22.17;;;;;;;;;;4965000;28;20463;-71
2024/03/18 07:09:07;;;;;;;22.20;21.30;;;;;;;;;;4963423;28;20461;-71
2024/03/18 07:11:34;;;;;;;21.60;20.80;;;;;;;;;;4966333;28;20565;-70
2024/03/18 07:14:03;;;;;;;22.73;21.83;;;;;;;;;;4965933;28;20477;-72
2024/03/18 07:16:30;;;;;;;22.80;21.90;;;;;;;;;;4954164;28;20461;-71
2024/03/18 07:18:58;;;;;;;21.60;20.80;;;;;;;;;;4961235;28;20476;-71
2024/03/18 07:21:25;;;;;;;20.77;19.97;;;;;;;;;;4963919;28;20490;-71
2024/03/18 07:23:52;;;;;;;22.80;21.90;;;;;;;;;;4972206;28;20819;-71
2024/03/18 07:26:20;;;;;;;21.57;20.67;;;;;;;;;;4967950;28;20473;-72
2024/03/18 07:28:47;;;;;;;20.77;19.93;;;;;;;;;;4968023;28;20469;-72
2024/03/18 07:31:15;;;;;;;21.23;20.33;;;;;;;;;;4963276;28;20933;-72
2024/03/18 07:33:42;;;;;;;21.80;20.90;;;;;;;;;;4969738;28;20465;-72
2024/03/18 07:36:10;;;;;;;21.53;20.63;;;;;;;;;;4958773;28;20507;-71
2024/03/18 07:38:38;;;;;;;21.40;20.50;;;;;;;;;;4959003;28;21130;-71
2024/03/18 07:41:05;;;;;;;22.30;21.30;;;;;;;;;;4965552;28;20474;-72
2024/03/18 07:43:32;;;;;;;22.10;21.10;;;;;;;;;;4964074;28;20557;-71
2024/03/18 07:45:59;;;;;;;20.83;19.93;;;;;;;;;;4969441;28;20467;-71
2024/03/18 07:48:28;;;;;;;20.33;19.43;;;;;;;;;;4961558;28;20477;-71
2024/03/18 07:50:56;;;;;;;19.63;18.83;;;;;;;;;;4963162;28;20473;-72
2024/03/18 07:53:24;;;;;;;20.27;19.37;;;;;;;;;;4963310;28;20471;-71
2024/03/18 07:56:00;;;;;;;20.67;19.77;;;;;;;;;;4975897;28;20503;-72
2024/03/18 07:58:27;;;;;;;20.20;19.30;;;;;;;;;;4965417;28;20965;-71
2024/03/18 08:00:55;;;;;;;20.30;19.40;;;;;;;;;;4968209;28;20494;-71
2024/03/18 08:03:23;;;;;;;20.83;19.83;;;;;;;;;;4975321;28;20463;-72
2024/03/18 08:05:52;;;;;;;21.00;20.00;;;;;;;;;;4966356;28;20480;-71
2024/03/18 08:08:19;;;;;;;20.33;19.43;;;;;;;;;;4956927;28;20475;-71
2024/03/18 08:10:46;;;;;;;20.30;19.40;;;;;;;;;;4962694;28;20475;-72
2024/03/18 08:13:14;;;;;;;20.60;19.60;;;;;;;;;;4967607;28;20911;-71
2024/03/18 08:15:45;;;;;;;20.53;19.53;;;;;;;;;;4972768;28;20526;-73
2024/03/18 08:18:12;;;;;;;19.97;19.07;;;;;;;;;;4968155;28;20974;-73
2024/03/18 08:20:40;;;;;;;19.20;18.30;;;;;;;;;;4958994;28;20480;-71
2024/03/18 08:23:08;;;;;;;19.10;18.20;;;;;;;;;;4957345;28;20475;-71
2024/03/18 08:25:35;;;;;;;19.60;18.70;;;;;;;;;;4965424;28;20490;-71
2024/03/18 08:28:03;;;;;;;19.77;18.87;;;;;;;;;;4968161;28;20459;-73
2024/03/18 08:30:30;;;;;;;18.90;18.00;;;;;;;;;;4968854;28;20460;-73
2024/03/18 08:32:57;;;;;;;17.80;17.00;;;;;;;;;;4962446;28;20468;-73
2024/03/18 08:35:24;;;;;;;17.30;16.50;;;;;;;;;;4970955;28;20507;-72
2024/03/18 08:37:51;;;;;;;17.37;16.57;;;;;;;;;;4962589;28;20512;-73
2024/03/18 08:40:20;;;;;;;17.27;16.47;;;;;;;;;;4962108;28;20476;-72
2024/03/18 08:42:47;;;;;;;16.90;16.20;;;;;;;;;;4967517;28;20478;-72
2024/03/18 08:45:15;;;;;;;17.10;16.40;;;;;;;;;;4971753;28;20545;-71
2024/03/18 08:47:42;;;;;;;16.90;16.20;;;;;;;;;;4973675;28;20876;-72
2024/03/18 08:50:10;;;;;;;15.30;14.70;;;;;;;;;;4966109;28;20496;-73
2024/03/18 08:52:37;;;;;;;14.83;14.23;;;;;;;;;;4961479;28;20463;-72
2024/03/18 08:55:05;;;;;;;15.00;14.40;;;;;;;;;;4960734;28;20484;-72
2024/03/18 08:57:33;;;;;;;15.43;14.83;;;;;;;;;;4958113;28;20507;-73
2024/03/18 09:00:01;;;;;;;14.90;14.30;;;;;;;;;;4967609;28;20475;-73
2024/03/18 09:02:28;;;;;;;14.60;14.00;;;;;;;;;;4963341;28;21051;-73
2024/03/18 09:04:55;;;;;;;14.53;13.93;;;;;;;;;;4954777;28;20478;-71
2024/03/18 09:07:22;;;;;;;14.20;13.70;;;;;;;;;;4965672;28;20467;-72
2024/03/18 09:09:49;;;;;;;14.67;14.07;;;;;;;;;;4966327;28;20479;-73
2024/03/18 09:12:16;;;;;;;14.70;14.10;;;;;;;;;;4955781;28;20465;-72
2024/03/18 09:14:45;;;;;;;14.00;13.50;;;;;;;;;;4963551;28;20495;-71
2024/03/18 09:17:13;;;;;;;14.60;14.00;;;;;;;;;;4965893;28;20971;-71
2024/03/18 09:19:40;;;;;;;14.80;14.20;;;;;;;;;;4957420;28;20461;-71
2024/03/18 09:22:09;;;;;;;14.80;14.20;;;;;;;;;;4962963;28;20476;-71
2024/03/18 09:24:36;;;;;;;14.93;14.33;;;;;;;;;;4960306;28;20467;-71
2024/03/18 09:27:06;;;;;;;14.70;14.10;;;;;;;;;;4971337;28;20819;-71
2024/03/18 09:29:33;;;;;;;14.20;13.70;;;;;;;;;;4963264;28;20955;-72
2024/03/18 09:32:02;;;;;;;14.77;14.17;;;;;;;;;;4957951;28;20472;-71
2024/03/18 09:34:29;;;;;;;14.60;14.00;;;;;;;;;;4971123;28;20510;-73
2024/03/18 09:36:57;;;;;;;14.03;13.53;;;;;;;;;;4961232;28;20500;-73
2024/03/18 09:39:24;;;;;;;14.07;13.57;;;;;;;;;;4962300;28;20831;-71
2024/03/18 09:41:53;;;;;;;14.00;13.50;;;;;;;;;;4967410;28;20464;-72
2024/03/18 09:44:21;;;;;;;13.90;13.40;;;;;;;;;;4960149;28;20601;-71
2024/03/18 09:46:49;;;;;;;13.97;13.47;;;;;;;;;;4977278;28;20462;-71
2024/03/18 09:49:20;;;;;;;13.80;13.30;;;;;;;;;;4960265;28;20460;-71
2024/03/18 09:51:48;;;;;;;14.00;13.50;;;;;;;;;;4962925;28;20543;-72
2024/03/18 09:54:17;;;;;;;14.53;14.03;;;;;;;;;;4974211;28;20551;-71
2024/03/18 09:56:44;;;;;;;15.00;14.40;;;;;;;;;;4963006;28;20497;-71
2024/03/18 09:59:13;;;;;;;14.53;14.03;;;;;;;;;;4969957;28;20468;-72
2024/03/18 10:01:40;;;;;;;14.50;14.00;;;;;;;;;;4963866;28;20484;-73
2024/03/18 10:04:08;;;;;;;15.40;14.80;;;;;;;;;;4975221;28;20464;-71
2024/03/18 10:06:37;;;;;;;15.30;14.70;;;;;;;;;;4971344;28;20491;-71
2024/03/18 10:09:04;;;;;;;15.40;14.80;;;;;;;;;;4967749;28;20465;-71
2024/03/18 10:11:32;;;;;;;15.10;14.50;;;;;;;;;;4970882;28;20523;-71
2024/03/18 10:13:59;;;;;;;15.50;14.90;;;;;;;;;;4970403;28;20460;-71
2024/03/18 10:16:26;;;;;;;15.83;15.23;;;;;;;;;;4965590;28;20469;-73
2024/03/18 10:18:54;;;;;;;15.50;14.90;;;;;;;;;;4959916;28;20841;-73
2024/03/18 10:21:26;;;;;;;15.77;15.17;;;;;;;;;;4969109;28;20466;-73
2024/03/18 10:23:56;;;;;;;15.70;15.10;;;;;;;;;;4967236;28;20839;-72
2024/03/18 10:26:24;;;;;;;15.80;15.20;;;;;;;;;;4964635;28;20479;-72
2024/03/18 10:28:51;;;;;;;15.50;14.90;;;;;;;;;;4960835;28;20471;-72
2024/03/18 10:31:18;;;;;;;15.20;14.60;;;;;;;;;;4968462;28;20468;-72
2024/03/18 10:33:46;;;;;;;14.93;14.40;;;;;;;;;;4970117;28;20456;-73
2024/03/18 10:36:19;;;;;;;14.90;14.40;;;;;;;;;;4971113;28;20591;-72
2024/03/18 10:38:48;;;;;;;15.20;14.60;;;;;;;;;;4960808;28;20477;-72
2024/03/18 10:41:17;;;;;;;15.10;14.50;;;;;;;;;;4969669;28;20474;-72
2024/03/18 10:43:48;;;;;;;15.10;14.50;;;;;;;;;;4966773;28;20462;-72
2024/03/18 10:46:16;;;;;;;15.20;14.60;;;;;;;;;;4974099;28;20551;-71
2024/03/18 10:48:44;;;;;;;15.50;14.90;;;;;;;;;;4959358;28;20467;-72
2024/03/18 10:51:13;;;;;;;15.30;14.70;;;;;;;;;;4969969;28;20926;-71
2024/03/18 10:53:41;;;;;;;15.50;14.90;;;;;;;;;;4966002;28;20465;-72
2024/03/18 10:56:09;;;;;;;15.50;14.90;;;;;;;;;;4969291;28;20492;-72
2024/03/18 10:58:38;;;;;;;15.60;15.00;;;;;;;;;;4969252;28;20476;-72
2024/03/18 11:01:05;;;;;;;15.20;14.60;;;;;;;;;;4969193;28;20492;-71
2024/03/18 11:03:32;;;;;;;15.37;14.77;;;;;;;;;;4971497;28;20480;-70
2024/03/18 11:06:00;;;;;;;15.50;14.90;;;;;;;;;;4960640;28;20519;-72
2024/03/18 11:08:28;;;;;;;15.30;14.70;;;;;;;;;;4967156;28;20470;-72
2024/03/18 11:10:56;;;;;;;15.10;14.53;;;;;;;;;;4960491;28;21038;-71
2024/03/18 11:13:34;;;;;;;15.50;14.90;;;;;;;;;;4970689;28;20515;-70
2024/03/18 11:16:06;;;;;;;15.30;14.70;;;;;;;;;;4973997;28;20488;-71
2024/03/18 11:18:35;;;;;;;15.40;14.80;;;;;;;;;;4955465;28;20471;-70
2024/03/18 11:21:03;;;;;;;15.47;14.87;;;;;;;;;;4959723;28;20502;-70
2024/03/18 11:23:31;;;;;;;15.23;14.63;;;;;;;;;;4965496;28;20458;-70
2024/03/18 11:25:59;;;;;;;15.47;14.87;;;;;;;;;;4977296;28;21086;-69
2024/03/18 11:28:35;;;;;;;15.60;15.00;;;;;;;;;;4966315;28;20472;-70
2024/03/18 11:31:06;;;;;;;15.50;14.90;;;;;;;;;;4968477;28;20470;-69
2024/03/18 11:33:35;;;;;;;15.30;14.70;;;;;;;;;;4966726;28;20497;-71
2024/03/18 11:36:04;;;;;;;15.50;14.90;;;;;;;;;;4960259;28;20489;-70
2024/03/18 11:38:32;;;;;;;15.30;14.70;;;;;;;;;;4958761;28;20477;-70
2024/03/18 11:40:59;;;;;;;14.90;14.40;;;;;;;;;;4964868;28;20515;-72
2024/03/18 11:43:27;;;;;;;15.30;14.70;;;;;;;;;;4971052;28;20469;-70
2024/03/18 11:45:54;;;;;;;15.10;14.50;;;;;;;;;;4975676;28;20476;-71
2024/03/18 11:48:22;;;;;;;15.27;14.67;;;;;;;;;;4970398;28;20460;-70
2024/03/18 11:50:50;;;;;;;15.50;14.90;;;;;;;;;;4962276;28;20474;-71
2024/03/18 11:53:18;;;;;;;15.93;15.33;;;;;;;;;;4967987;28;20478;-71
2024/03/18 11:55:45;;;;;;;15.20;14.60;;;;;;;;;;4963801;28;20904;-72
2024/03/18 11:58:13;;;;;;;15.70;15.10;;;;;;;;;;4968412;28;20993;-72
2024/03/18 12:00:40;;;;;;;15.10;14.60;;;;;;;;;;4964181;28;20464;-70
2024/03/18 12:03:07;;;;;;;15.50;14.90;;;;;;;;;;4961924;28;20474;-72
2024/03/18 12:05:37;;;;;;;15.57;14.97;;;;;;;;;;4973112;28;20564;-72
2024/03/18 12:08:06;;;;;;;15.40;14.80;;;;;;;;;;4962085;28;20471;-71
2024/03/18 12:10:34;;;;;;;15.60;15.00;;;;;;;;;;4965137;28;20467;-72
2024/03/18 12:13:02;;;;;;;15.77;15.17;;;;;;;;;;4965752;28;20958;-72
2024/03/18 12:15:29;;;;;;;16.20;15.60;;;;;;;;;;4966478;28;20912;-73
2024/03/18 12:17:57;;;;;;;16.17;15.57;;;;;;;;;;4962725;28;20495;-72
2024/03/18 12:20:26;;;;;;;16.20;15.60;;;;;;;;;;4968234;28;20461;-72
2024/03/18 12:22:59;;;;;;;15.83;15.23;;;;;;;;;;4971073;28;20479;-73
2024/03/18 12:30:59;;;;;;;16.23;15.63;;;;;;;;;;4971976;28;20510;-72
2024/03/18 12:33:27;;;;;;;16.20;15.60;;;;;;;;;;4963746;28;20495;-70
2024/03/18 12:35:55;;;;;;;15.80;15.20;;;;;;;;;;4968671;28;20476;-72
2024/03/18 12:38:23;;;;;;;15.83;15.23;;;;;;;;;;4968324;28;20822;-72
2024/03/18 12:40:50;;;;;;;15.60;15.00;;;;;;;;;;4965278;28;20484;-72
2024/03/18 12:43:19;;;;;;;15.30;14.80;;;;;;;;;;4959600;28;20477;-71
2024/03/18 12:45:46;;;;;;;15.00;14.50;;;;;;;;;;4968849;28;20898;-70
2024/03/18 12:48:13;;;;;;;15.00;14.50;;;;;;;;;;4967691;28;20479;-71
2024/03/18 12:50:41;;;;;;;14.90;14.40;;;;;;;;;;4960778;28;20498;-72
2024/03/18 12:53:11;;;;;;;15.10;14.60;;;;;;;;;;4971063;28;20836;-71
2024/03/18 12:55:40;;;;;;;14.80;14.30;;;;;;;;;;4959992;28;20467;-71
2024/03/18 12:58:07;;;;;;;14.60;14.10;;;;;;;;;;4967674;28;20551;-70
2024/03/18 13:00:34;;;;;;;15.00;14.50;;;;;;;;;;4971212;28;21033;-71
2024/03/18 13:03:01;;;;;;;14.90;14.40;;;;;;;;;;4966465;28;20475;-71
2024/03/18 13:05:32;;;;;;;14.60;14.10;;;;;;;;;;4963428;28;21092;-70
2024/03/18 13:08:00;;;;;;;14.10;13.60;;;;;;;;;;4964240;28;20483;-71
2024/03/18 13:10:27;;;;;;;14.83;14.33;;;;;;;;;;4961804;28;20472;-70
2024/03/18 13:12:56;;;;;;;14.97;14.47;;;;;;;;;;4969565;28;20463;-72
2024/03/18 13:15:23;;;;;;;14.10;13.70;;;;;;;;;;4966637;28;20480;-71
2024/03/18 13:17:51;;;;;;;14.27;13.77;;;;;;;;;;4960012;28;20507;-69
2024/03/18 13:20:21;;;;;;;15.00;14.50;;;;;;;;;;4956612;28;20466;-71
2024/03/18 13:22:49;;;;;;;14.60;14.10;;;;;;;;;;4967729;28;20923;-71
2024/03/18 13:25:16;;;;;;;14.00;13.60;;;;;;;;;;4971048;28;20500;-71
2024/03/18 13:27:43;;;;;;;14.23;13.73;;;;;;;;;;4967815;28;20959;-69
2024/03/18 13:30:12;;;;;;;14.80;14.30;;;;;;;;;;4961159;28;20466;-71
2024/03/18 13:32:41;;;;;;;14.50;14.00;;;;;;;;;;4972043;28;20474;-70
2024/03/18 13:35:09;;;;;;;14.77;14.27;;;;;;;;;;4974341;28;20469;-71
2024/03/18 13:37:36;;;;;;;14.63;14.13;;;;;;;;;;4964054;28;20491;-70
2024/03/18 13:40:05;;;;;;;15.20;14.70;;;;;;;;;;4963656;28;20484;-69
2024/03/18 13:42:32;;;;;;;14.90;14.40;;;;;;;;;;4965432;28;20477;-69
2024/03/18 13:44:59;;;;;;;14.90;14.40;;;;;;;;;;4972333;28;20470;-71
2024/03/18 13:47:28;;;;;;;14.97;14.47;;;;;;;;;;4969615;28;20497;-70
2024/03/18 13:49:56;;;;;;;15.83;15.23;;;;;;;;;;4959133;28;20598;-71
2024/03/18 13:52:24;;;;;;;15.77;15.17;;;;;;;;;;4967997;28;20483;-71
2024/03/18 13:54:51;;;;;;;15.20;14.70;;;;;;;;;;4970838;28;20974;-71
2024/03/18 13:57:18;;;;;;;15.33;14.83;;;;;;;;;;4969049;28;20491;-70
2024/03/18 13:59:50;;;;;;;15.07;14.57;;;;;;;;;;4965484;28;20483;-68
2024/03/18 14:02:17;;;;;;;15.10;14.60;;;;;;;;;;4964845;28;20522;-69
2024/03/18 14:04:45;;;;;;;15.53;15.03;;;;;;;;;;4968922;28;20468;-71
2024/03/18 14:07:12;;;;;;;15.70;15.10;;;;;;;;;;4954851;28;20479;-71
2024/03/18 14:09:40;;;;;;;15.77;15.17;;;;;;;;;;4965849;28;20478;-71
2024/03/18 14:12:07;;;;;;;15.90;15.30;;;;;;;;;;4964677;28;20563;-71
2024/03/18 14:14:34;;;;;;;15.57;15.00;;;;;;;;;;4972328;28;20490;-70
2024/03/18 14:17:02;;;;;;;15.87;15.27;;;;;;;;;;4958166;28;20505;-68
2024/03/18 14:19:30;;;;;;;15.20;14.70;;;;;;;;;;4977462;28;20805;-69
2024/03/18 14:21:59;;;;;;;15.20;14.70;;;;;;;;;;4970693;28;20470;-69
2024/03/18 14:24:26;;;;;;;16.13;15.53;;;;;;;;;;4965194;28;20471;-70